Time,TemperatureF,DewpointF,PressureIn,WindDirection,WindDirectionDegrees,WindSpeedMPH,WindSpeedGustMPH,Humidity,HourlyPrecipIn,Conditions,Clouds,dailyrainin,SoftwareType,DateUTC
2013-11-27 00:07:00,25.8,22.2,29.99,WNW,284,2.0,15.0,86,0.00,,,0.00,Wunderground v.1.15,2013-11-27 05:07:00,
2013-11-27 00:15:00,25.1,22.0,29.99,NW,326,2.0,15.0,88,0.00,,,0.00,Wunderground v.1.15,2013-11-27 05:15:00,
2013-11-27 00:16:00,25.1,22.0,29.99,NW,326,2.0,15.0,88,0.00,,,0.00,Wunderground v.1.15,2013-11-27 05:16:00,
2013-11-27 00:24:00,24.7,21.7,29.99,NW,311,2.0,15.0,88,0.00,,,0.00,Wunderground v.1.15,2013-11-27 05:24:00,
2013-11-27 00:30:00,24.5,21.7,29.99,NW,315,2.0,15.0,89,0.00,,,0.00,Wunderground v.1.15,2013-11-27 05:30:00,
2013-11-27 00:36:00,24.7,21.9,29.98,NW,321,3.0,3.0,89,0.00,,,0.00,Wunderground v.1.15,2013-11-27 05:36:00,
2013-11-27 00:42:00,25.0,21.9,29.98,NW,314,3.0,15.0,88,0.00,,,0.00,Wunderground v.1.15,2013-11-27 05:42:00,
2013-11-27 00:47:00,24.9,21.8,29.98,WNW,300,3.0,15.0,88,0.00,,,0.00,Wunderground v.1.15,2013-11-27 05:47:00,
2013-11-27 00:55:00,24.8,21.8,29.98,NW,314,3.0,15.0,88,0.00,,,0.00,Wunderground v.1.15,2013-11-27 05:55:00,
2013-11-27 01:05:00,24.9,21.0,29.98,NW,314,4.0,15.0,85,0.00,,,0.00,Wunderground v.1.15,2013-11-27 06:05:00,
2013-11-27 01:12:00,24.8,20.4,29.98,NW,321,4.0,4.0,83,0.00,,,0.00,Wunderground v.1.15,2013-11-27 06:12:00,
2013-11-27 01:18:00,24.7,20.3,29.98,NW,321,4.0,15.0,83,0.00,,,0.00,Wunderground v.1.15,2013-11-27 06:18:00,
2013-11-27 01:23:00,24.7,20.0,29.98,NW,314,4.0,15.0,82,0.00,,,0.00,Wunderground v.1.15,2013-11-27 06:23:00,
2013-11-27 01:30:00,24.9,20.2,29.97,NNW,328,4.0,15.0,82,0.00,,,0.00,Wunderground v.1.15,2013-11-27 06:30:00,
2013-11-27 01:36:00,25.0,20.3,29.98,NW,312,4.0,4.0,82,0.00,,,0.00,Wunderground v.1.15,2013-11-27 06:36:00,
2013-11-27 01:51:00,25.2,20.5,29.98,WNW,300,3.0,15.0,82,0.00,,,0.00,Wunderground v.1.15,2013-11-27 06:51:00,
2013-11-27 01:57:00,24.8,20.1,29.98,WNW,291,3.0,3.0,82,0.00,,,0.00,Wunderground v.1.15,2013-11-27 06:57:00,
2013-11-27 02:03:00,24.3,19.9,29.98,WNW,300,2.0,15.0,83,0.00,,,0.00,Wunderground v.1.15,2013-11-27 07:03:00,
2013-11-27 02:11:00,24.7,20.8,29.98,WNW,302,3.0,15.0,85,0.00,,,0.00,Wunderground v.1.15,2013-11-27 07:11:00,
2013-11-27 02:18:00,25.0,21.1,29.98,WNW,288,3.0,15.0,85,0.00,,,0.00,Wunderground v.1.15,2013-11-27 07:18:00,
2013-11-27 02:23:00,25.3,21.4,29.98,WNW,290,3.0,15.0,85,0.00,,,0.00,Wunderground v.1.15,2013-11-27 07:23:00,
2013-11-27 02:34:00,25.4,21.2,29.98,WNW,283,4.0,15.0,84,0.00,,,0.00,Wunderground v.1.15,2013-11-27 07:34:00,
2013-11-27 02:41:00,24.9,20.8,29.98,WNW,300,5.0,15.0,84,0.00,,,0.00,Wunderground v.1.15,2013-11-27 07:41:00,
2013-11-27 02:50:00,24.4,20.5,29.98,WNW,298,5.0,15.0,85,0.00,,,0.00,Wunderground v.1.15,2013-11-27 07:50:00,
2013-11-27 02:57:00,24.1,20.2,29.98,WNW,295,4.0,15.0,85,0.00,,,0.00,Wunderground v.1.15,2013-11-27 07:57:00,
2013-11-27 03:05:00,23.9,20.3,29.98,WNW,295,4.0,15.0,86,0.00,,,0.00,Wunderground v.1.15,2013-11-27 08:05:00,
2013-11-27 03:14:00,23.7,20.4,29.98,WNW,303,4.0,4.0,87,0.00,,,0.00,Wunderground v.1.15,2013-11-27 08:14:00,
2013-11-27 03:20:00,24.1,20.8,29.98,WNW,302,4.0,15.0,87,0.00,,,0.00,Wunderground v.1.15,2013-11-27 08:20:00,
2013-11-27 03:31:00,24.7,21.4,29.98,WNW,294,4.0,15.0,87,0.00,,,0.00,Wunderground v.1.15,2013-11-27 08:31:00,
2013-11-27 03:40:00,25.2,21.3,29.98,WNW,297,6.0,15.0,85,0.00,,,0.00,Wunderground v.1.15,2013-11-27 08:40:00,
2013-11-27 03:46:00,25.2,21.3,29.98,WNW,300,6.0,15.0,85,0.00,,,0.00,Wunderground v.1.15,2013-11-27 08:46:00,
2013-11-27 03:52:00,24.7,20.6,29.98,NW,309,6.0,15.0,84,0.00,,,0.00,Wunderground v.1.15,2013-11-27 08:52:00,
2013-11-27 03:58:00,24.4,20.5,29.98,WNW,300,5.0,8.0,85,0.00,,,0.00,Wunderground v.1.15,2013-11-27 08:58:00,
2013-11-27 04:05:00,24.2,20.3,29.98,WNW,293,6.0,15.0,85,0.00,,,0.00,Wunderground v.1.15,2013-11-27 09:05:00,
2013-11-27 04:13:00,24.0,20.4,29.99,WNW,293,6.0,7.0,86,0.00,,,0.00,Wunderground v.1.15,2013-11-27 09:13:00,
2013-11-27 04:20:00,24.0,20.4,29.99,WNW,303,6.0,15.0,86,0.00,,,0.00,Wunderground v.1.15,2013-11-27 09:20:00,
2013-11-27 04:26:00,24.0,20.4,29.99,NW,305,6.0,15.0,86,0.00,,,0.00,Wunderground v.1.15,2013-11-27 09:26:00,
2013-11-27 04:32:00,24.1,20.5,30.00,NW,309,6.0,15.0,86,0.00,,,0.00,Wunderground v.1.15,2013-11-27 09:32:00,
2013-11-27 04:39:00,24.2,20.3,30.00,NW,304,7.0,15.0,85,0.00,,,0.00,Wunderground v.1.15,2013-11-27 09:39:00,
2013-11-27 04:45:00,24.2,20.3,30.00,NW,304,8.0,15.0,85,0.00,,,0.00,Wunderground v.1.15,2013-11-27 09:45:00,
2013-11-27 04:52:00,24.2,20.1,30.00,NNW,327,8.0,8.0,84,0.00,,,0.00,Wunderground v.1.15,2013-11-27 09:52:00,
2013-11-27 05:00:00,24.3,19.9,30.00,North,10,8.0,15.0,83,0.00,,,0.00,Wunderground v.1.15,2013-11-27 10:00:00,
2013-11-27 05:06:00,24.3,19.3,30.00,NNW,334,9.0,9.0,81,0.00,,,0.00,Wunderground v.1.15,2013-11-27 10:06:00,
2013-11-27 05:12:00,24.2,19.5,30.01,NNW,334,9.0,15.0,82,0.00,,,0.00,Wunderground v.1.15,2013-11-27 10:12:00,
2013-11-27 05:22:00,24.1,18.5,30.01,NNW,336,8.0,15.0,79,0.00,,,0.00,Wunderground v.1.15,2013-11-27 10:22:00,
2013-11-27 05:28:00,24.1,18.5,30.02,NNW,333,9.0,15.0,79,0.00,,,0.00,Wunderground v.1.15,2013-11-27 10:28:00,
2013-11-27 05:34:00,24.1,18.2,30.02,NW,318,9.0,15.0,78,0.00,,,0.00,Wunderground v.1.15,2013-11-27 10:34:00,
2013-11-27 05:42:00,24.0,18.4,30.02,North,349,8.0,15.0,79,0.00,,,0.00,Wunderground v.1.15,2013-11-27 10:42:00,
2013-11-27 05:50:00,23.9,18.3,30.02,NNW,335,7.0,15.0,79,0.00,,,0.00,Wunderground v.1.15,2013-11-27 10:50:00,
2013-11-27 05:56:00,23.9,18.6,30.02,NW,323,6.0,15.0,80,0.00,,,0.00,Wunderground v.1.15,2013-11-27 10:56:00,
2013-11-27 06:02:00,23.9,18.3,30.03,NNW,335,7.0,15.0,79,0.00,,,0.00,Wunderground v.1.15,2013-11-27 11:02:00,
2013-11-27 06:09:00,23.9,18.3,30.02,NNW,335,7.0,15.0,79,0.00,,,0.00,Wunderground v.1.15,2013-11-27 11:09:00,
2013-11-27 06:15:00,23.8,18.5,30.02,North,360,6.0,15.0,80,0.00,,,0.00,Wunderground v.1.15,2013-11-27 11:15:00,
2013-11-27 06:23:00,23.8,18.5,30.03,North,5,6.0,15.0,80,0.00,,,0.00,Wunderground v.1.15,2013-11-27 11:23:00,
2013-11-27 06:29:00,23.8,18.5,30.03,NNW,348,5.0,15.0,80,0.00,,,0.00,Wunderground v.1.15,2013-11-27 11:29:00,
2013-11-27 06:35:00,23.8,18.5,30.03,NNE,16,5.0,15.0,80,0.00,,,0.00,Wunderground v.1.15,2013-11-27 11:35:00,
2013-11-27 06:41:00,23.8,18.2,30.03,NNW,340,5.0,5.0,79,0.00,,,0.00,Wunderground v.1.15,2013-11-27 11:41:00,
2013-11-27 06:46:00,23.8,18.2,30.03,NNE,13,5.0,15.0,79,0.00,,,0.00,Wunderground v.1.15,2013-11-27 11:46:00,
2013-11-27 06:53:00,23.9,18.3,30.04,NW,319,5.0,15.0,79,0.00,,,0.00,Wunderground v.1.15,2013-11-27 11:53:00,
2013-11-27 06:58:00,23.8,17.9,30.04,NNW,340,5.0,15.0,78,0.00,,,0.00,Wunderground v.1.15,2013-11-27 11:58:00,
2013-11-27 07:06:00,23.8,17.3,30.04,North,10,6.0,15.0,76,0.00,,,0.00,Wunderground v.1.15,2013-11-27 12:06:00,
2013-11-27 07:13:00,23.8,17.0,30.04,NW,323,8.0,15.0,75,0.00,,,0.00,Wunderground v.1.15,2013-11-27 12:13:00,
2013-11-27 07:25:00,23.6,16.8,30.05,NNW,342,7.0,7.0,75,0.00,,,0.00,Wunderground v.1.15,2013-11-27 12:25:00,
2013-11-27 07:35:00,23.5,17.0,30.05,NNW,330,6.0,15.0,76,0.00,,,0.00,Wunderground v.1.15,2013-11-27 12:35:00,
2013-11-27 07:43:00,23.3,16.5,30.06,North,349,7.0,15.0,75,0.00,,,0.00,Wunderground v.1.15,2013-11-27 12:43:00,
2013-11-27 07:51:00,23.2,16.4,30.06,NNW,347,7.0,15.0,75,0.00,,,0.00,Wunderground v.1.15,2013-11-27 12:51:00,
2013-11-27 07:57:00,23.1,16.7,30.06,NNW,341,6.0,6.0,76,0.00,,,0.00,Wunderground v.1.15,2013-11-27 12:57:00,
2013-11-27 08:02:00,23.1,16.7,30.06,NNW,338,5.0,15.0,76,0.00,,,0.00,Wunderground v.1.15,2013-11-27 13:02:00,
2013-11-27 08:13:00,23.0,16.9,30.06,North,1,5.0,15.0,77,0.00,,,0.00,Wunderground v.1.15,2013-11-27 13:13:00,
2013-11-27 08:20:00,23.0,16.9,30.07,NNW,334,6.0,15.0,77,0.00,,,0.00,Wunderground v.1.15,2013-11-27 13:20:00,
2013-11-27 08:27:00,23.0,17.2,30.07,NW,323,4.0,15.0,78,0.00,,,0.00,Wunderground v.1.15,2013-11-27 13:27:00,
2013-11-27 08:34:00,23.1,17.6,30.07,NW,315,4.0,15.0,79,0.00,,,0.00,Wunderground v.1.15,2013-11-27 13:34:00,
2013-11-27 08:43:00,23.2,18.5,30.07,NW,319,4.0,15.0,82,0.00,,,0.00,Wunderground v.1.15,2013-11-27 13:43:00,
2013-11-27 08:50:00,23.2,18.8,30.08,NW,307,5.0,15.0,83,0.00,,,0.00,Wunderground v.1.15,2013-11-27 13:50:00,
2013-11-27 08:59:00,23.2,18.8,30.08,NW,319,5.0,15.0,83,0.00,,,0.00,Wunderground v.1.15,2013-11-27 13:59:00,
2013-11-27 09:06:00,23.3,19.2,30.08,NW,305,4.0,15.0,84,0.00,,,0.00,Wunderground v.1.15,2013-11-27 14:06:00,
2013-11-27 09:15:00,23.5,19.1,30.08,NW,305,5.0,15.0,83,0.00,,,0.00,Wunderground v.1.15,2013-11-27 14:15:00,
2013-11-27 09:22:00,23.6,19.2,30.08,NW,314,6.0,15.0,83,0.00,,,0.00,Wunderground v.1.15,2013-11-27 14:22:00,
2013-11-27 09:35:00,23.8,19.1,30.08,NNW,332,6.0,6.0,82,0.00,,,0.00,Wunderground v.1.15,2013-11-27 14:35:00,
2013-11-27 09:40:00,24.2,19.8,30.08,NW,317,6.0,15.0,83,0.00,,,0.00,Wunderground v.1.15,2013-11-27 14:40:00,
2013-11-27 09:46:00,23.7,18.7,30.08,WNW,295,7.0,15.0,81,0.00,,,0.00,Wunderground v.1.15,2013-11-27 14:46:00,
2013-11-27 09:53:00,23.9,18.9,30.08,NW,323,8.0,15.0,81,0.00,,,0.00,Wunderground v.1.15,2013-11-27 14:53:00,
2013-11-27 10:00:00,24.4,18.8,30.08,NNW,327,8.0,8.0,79,0.00,,,0.00,Wunderground v.1.15,2013-11-27 15:00:00,
2013-11-27 10:07:00,24.4,19.1,30.08,NNW,333,8.0,15.0,80,0.00,,,0.00,Wunderground v.1.15,2013-11-27 15:07:00,
2013-11-27 10:12:00,24.7,19.4,30.08,NW,323,8.0,15.0,80,0.00,,,0.00,Wunderground v.1.15,2013-11-27 15:12:00,
2013-11-27 10:21:00,25.1,20.1,30.08,NNW,335,7.0,15.0,81,0.00,,,0.00,Wunderground v.1.15,2013-11-27 15:21:00,
2013-11-27 10:27:00,25.0,19.4,30.08,WNW,295,8.0,15.0,79,0.00,,,0.00,Wunderground v.1.15,2013-11-27 15:27:00,
2013-11-27 10:33:00,24.9,19.6,30.09,NNW,328,9.0,9.0,80,0.00,,,0.00,Wunderground v.1.15,2013-11-27 15:33:00,
2013-11-27 10:40:00,25.0,20.0,30.08,North,352,8.0,10.0,81,0.00,,,0.00,Wunderground v.1.15,2013-11-27 15:40:00,
2013-11-27 10:46:00,25.0,19.7,30.08,NW,323,8.0,8.0,80,0.00,,,0.00,Wunderground v.1.15,2013-11-27 15:46:00,
2013-11-27 10:54:00,25.0,19.1,30.09,NNW,342,9.0,15.0,78,0.00,,,0.00,Wunderground v.1.15,2013-11-27 15:54:00,
2013-11-27 11:00:00,25.4,19.5,30.09,NNW,332,10.0,15.0,78,0.00,,,0.00,Wunderground v.1.15,2013-11-27 16:00:00,
2013-11-27 11:07:00,25.6,19.7,30.09,NNW,327,10.0,15.0,78,0.00,,,0.00,Wunderground v.1.15,2013-11-27 16:07:00,
2013-11-27 11:15:00,25.4,19.5,30.09,NW,315,12.0,15.0,78,0.00,,,0.00,Wunderground v.1.15,2013-11-27 16:15:00,
2013-11-27 11:21:00,25.5,19.9,30.08,NW,311,10.0,10.0,79,0.00,,,0.00,Wunderground v.1.15,2013-11-27 16:21:00,
2013-11-27 11:26:00,25.7,19.8,30.08,NW,309,9.0,15.0,78,0.00,,,0.00,Wunderground v.1.15,2013-11-27 16:26:00,
2013-11-27 11:33:00,25.7,19.8,30.08,WNW,293,8.0,8.0,78,0.00,,,0.00,Wunderground v.1.15,2013-11-27 16:33:00,
2013-11-27 11:40:00,26.2,20.3,30.07,NW,310,7.0,15.0,78,0.00,,,0.00,Wunderground v.1.15,2013-11-27 16:40:00,
2013-11-27 11:47:00,26.4,20.2,30.07,WNW,300,8.0,15.0,77,0.00,,,0.00,Wunderground v.1.15,2013-11-27 16:47:00,
2013-11-27 12:01:00,26.2,20.0,30.07,NW,314,8.0,8.0,77,0.00,,,0.00,Wunderground v.1.15,2013-11-27 17:01:00,
2013-11-27 12:07:00,26.0,19.2,30.06,WNW,291,9.0,15.0,75,0.00,,,0.00,Wunderground v.1.15,2013-11-27 17:07:00,
2013-11-27 12:12:00,26.3,20.1,30.06,NW,323,10.0,15.0,77,0.00,,,0.00,Wunderground v.1.15,2013-11-27 17:12:00,
2013-11-27 12:21:00,26.2,20.0,30.06,NW,308,8.0,15.0,77,0.00,,,0.00,Wunderground v.1.15,2013-11-27 17:21:00,
2013-11-27 12:28:00,26.4,20.2,30.06,WNW,301,8.0,15.0,77,0.00,,,0.00,Wunderground v.1.15,2013-11-27 17:28:00,
2013-11-27 12:36:00,26.5,20.3,30.06,West,278,9.0,15.0,77,0.00,,,0.00,Wunderground v.1.15,2013-11-27 17:36:00,
2013-11-27 12:45:00,26.3,20.1,30.06,WNW,283,10.0,15.0,77,0.00,,,0.00,Wunderground v.1.15,2013-11-27 17:45:00,
2013-11-27 12:51:00,26.3,20.7,30.06,WNW,284,10.0,15.0,79,0.00,,,0.00,Wunderground v.1.15,2013-11-27 17:51:00,
2013-11-27 12:57:00,26.1,20.5,30.06,West,273,10.0,15.0,79,0.00,,,0.00,Wunderground v.1.15,2013-11-27 17:57:00,
2013-11-27 13:05:00,26.3,20.7,30.06,WNW,298,10.0,15.0,79,0.00,,,0.00,Wunderground v.1.15,2013-11-27 18:05:00,
2013-11-27 13:16:00,26.1,21.4,30.06,West,279,10.0,15.0,82,0.00,,,0.00,Wunderground v.1.15,2013-11-27 18:16:00,
2013-11-27 13:21:00,26.2,21.5,30.06,WNW,291,11.0,15.0,82,0.00,,,0.00,Wunderground v.1.15,2013-11-27 18:21:00,
2013-11-27 13:27:00,26.1,21.1,30.06,WNW,297,11.0,15.0,81,0.00,,,0.00,Wunderground v.1.15,2013-11-27 18:27:00,
2013-11-27 13:34:00,26.2,21.7,30.06,WNW,285,10.0,15.0,83,0.00,,,0.00,Wunderground v.1.15,2013-11-27 18:34:00,
2013-11-27 13:42:00,25.8,21.3,30.06,West,280,11.0,16.0,83,0.00,,,0.00,Wunderground v.1.15,2013-11-27 18:42:00,
2013-11-27 13:54:00,25.4,21.8,30.06,West,276,12.0,15.0,86,0.00,,,0.00,Wunderground v.1.15,2013-11-27 18:54:00,
2013-11-27 13:57:00,25.4,21.8,30.06,WNW,291,12.0,15.0,86,0.00,,,0.00,Wunderground v.1.15,2013-11-27 18:57:00,
2013-11-27 14:03:00,25.5,21.9,30.06,West,267,11.0,15.0,86,0.00,,,0.00,Wunderground v.1.15,2013-11-27 19:03:00,
2013-11-27 14:11:00,25.5,21.9,30.07,WNW,284,11.0,15.0,86,0.00,,,0.00,Wunderground v.1.15,2013-11-27 19:11:00,
2013-11-27 14:20:00,25.2,21.9,30.07,West,277,10.0,15.0,87,0.00,,,0.00,Wunderground v.1.15,2013-11-27 19:20:00,
2013-11-27 14:26:00,25.0,21.7,30.07,WNW,285,11.0,15.0,87,0.00,,,0.00,Wunderground v.1.15,2013-11-27 19:26:00,
2013-11-27 14:40:00,25.1,22.3,30.07,West,278,10.0,15.0,89,0.00,,,0.00,Wunderground v.1.15,2013-11-27 19:40:00,
2013-11-27 14:50:00,25.2,22.1,30.07,WNW,294,10.0,10.0,88,0.00,,,0.00,Wunderground v.1.15,2013-11-27 19:50:00,
2013-11-27 14:55:00,25.3,22.5,30.08,West,271,9.0,15.0,89,0.00,,,0.00,Wunderground v.1.15,2013-11-27 19:55:00,
2013-11-27 15:03:00,25.3,22.5,30.08,WNW,282,10.0,10.0,89,0.00,,,0.00,Wunderground v.1.15,2013-11-27 20:03:00,
2013-11-27 15:10:00,25.3,22.2,30.09,West,274,10.0,15.0,88,0.00,,,0.00,Wunderground v.1.15,2013-11-27 20:10:00,
2013-11-27 15:17:00,25.3,22.2,30.09,West,278,10.0,15.0,88,0.00,,,0.00,Wunderground v.1.15,2013-11-27 20:17:00,
2013-11-27 15:31:00,25.0,21.9,30.09,West,269,12.0,15.0,88,0.00,,,0.00,Wunderground v.1.15,2013-11-27 20:31:00,
2013-11-27 15:37:00,25.0,21.9,30.09,WNW,289,11.0,15.0,88,0.00,,,0.00,Wunderground v.1.15,2013-11-27 20:37:00,
2013-11-27 15:44:00,24.9,22.1,30.10,WNW,286,10.0,15.0,89,0.00,,,0.00,Wunderground v.1.15,2013-11-27 20:44:00,
2013-11-27 15:53:00,24.9,21.8,30.10,West,280,11.0,15.0,88,0.00,,,0.00,Wunderground v.1.15,2013-11-27 20:53:00,
2013-11-27 16:00:00,24.9,21.8,30.10,West,263,10.0,15.0,88,0.00,,,0.00,Wunderground v.1.15,2013-11-27 21:00:00,
2013-11-27 16:06:00,25.0,21.9,30.10,West,281,9.0,15.0,88,0.00,,,0.00,Wunderground v.1.15,2013-11-27 21:06:00,
2013-11-27 16:13:00,25.1,21.8,30.11,West,281,9.0,15.0,87,0.00,,,0.00,Wunderground v.1.15,2013-11-27 21:13:00,
2013-11-27 16:19:00,25.1,21.8,30.11,West,266,9.0,15.0,87,0.00,,,0.00,Wunderground v.1.15,2013-11-27 21:19:00,
2013-11-27 16:29:00,25.0,21.7,30.12,WNW,285,8.0,15.0,87,0.00,,,0.00,Wunderground v.1.15,2013-11-27 21:29:00,
2013-11-27 16:34:00,25.0,21.9,30.12,WNW,288,8.0,15.0,88,0.00,,,0.00,Wunderground v.1.15,2013-11-27 21:34:00,
2013-11-27 16:40:00,25.0,22.2,30.12,WNW,285,8.0,15.0,89,0.00,,,0.00,Wunderground v.1.15,2013-11-27 21:40:00,
2013-11-27 16:46:00,24.9,22.1,30.13,West,274,8.0,15.0,89,0.00,,,0.00,Wunderground v.1.15,2013-11-27 21:46:00,
2013-11-27 16:54:00,24.8,22.0,30.13,West,281,9.0,15.0,89,0.00,,,0.00,Wunderground v.1.15,2013-11-27 21:54:00,
2013-11-27 17:01:00,24.8,22.0,30.13,West,264,8.0,15.0,89,0.00,,,0.00,Wunderground v.1.15,2013-11-27 22:01:00,
2013-11-27 17:07:00,24.7,21.9,30.13,West,277,8.0,15.0,89,0.00,,,0.00,Wunderground v.1.15,2013-11-27 22:07:00,
2013-11-27 17:12:00,24.7,21.7,30.14,WNW,303,9.0,15.0,88,0.00,,,0.00,Wunderground v.1.15,2013-11-27 22:12:00,
2013-11-27 17:20:00,24.6,21.8,30.14,WNW,283,9.0,15.0,89,0.00,,,0.00,Wunderground v.1.15,2013-11-27 22:20:00,
2013-11-27 17:28:00,24.5,21.7,30.14,WNW,283,8.0,15.0,89,0.00,,,0.00,Wunderground v.1.15,2013-11-27 22:28:00,
2013-11-27 17:37:00,24.5,22.0,30.14,West,278,8.0,15.0,90,0.00,,,0.00,Wunderground v.1.15,2013-11-27 22:37:00,
2013-11-27 17:44:00,24.4,21.6,30.15,West,275,7.0,15.0,89,0.00,,,0.00,Wunderground v.1.15,2013-11-27 22:44:00,
2013-11-27 17:50:00,24.5,21.5,30.15,West,281,8.0,8.0,88,0.00,,,0.00,Wunderground v.1.15,2013-11-27 22:50:00,
2013-11-27 17:57:00,24.5,21.5,30.15,WNW,285,8.0,15.0,88,0.00,,,0.00,Wunderground v.1.15,2013-11-27 22:57:00,
2013-11-27 18:03:00,24.6,21.3,30.15,WNW,284,7.0,15.0,87,0.00,,,0.00,Wunderground v.1.15,2013-11-27 23:03:00,
2013-11-27 18:09:00,24.7,21.1,30.15,WNW,288,7.0,15.0,86,0.00,,,0.00,Wunderground v.1.15,2013-11-27 23:09:00,
2013-11-27 18:14:00,24.7,20.8,30.16,WNW,288,8.0,15.0,85,0.00,,,0.00,Wunderground v.1.15,2013-11-27 23:14:00,
2013-11-27 18:21:00,24.7,21.1,30.16,West,281,8.0,15.0,86,0.00,,,0.00,Wunderground v.1.15,2013-11-27 23:21:00,
2013-11-27 18:26:00,24.7,20.8,30.16,West,277,9.0,15.0,85,0.00,,,0.00,Wunderground v.1.15,2013-11-27 23:26:00,
2013-11-27 18:33:00,24.7,20.6,30.17,WNW,288,9.0,15.0,84,0.00,,,0.00,Wunderground v.1.15,2013-11-27 23:33:00,
2013-11-27 18:38:00,24.8,20.7,30.16,West,280,9.0,15.0,84,0.00,,,0.00,Wunderground v.1.15,2013-11-27 23:38:00,
2013-11-27 18:44:00,24.8,20.4,30.17,West,276,10.0,15.0,83,0.00,,,0.00,Wunderground v.1.15,2013-11-27 23:44:00,
2013-11-27 18:55:00,24.8,20.7,30.17,West,277,9.0,9.0,84,0.00,,,0.00,Wunderground v.1.15,2013-11-27 23:55:00,
2013-11-27 19:05:00,24.6,19.9,30.17,West,271,9.0,15.0,82,0.00,,,0.00,Wunderground v.1.15,2013-11-28 00:05:00,
2013-11-27 19:10:00,24.4,19.1,30.18,West,275,8.0,15.0,80,0.00,,,0.00,Wunderground v.1.15,2013-11-28 00:10:00,
2013-11-27 19:17:00,24.3,19.0,30.18,West,276,9.0,15.0,80,0.00,,,0.00,Wunderground v.1.15,2013-11-28 00:17:00,
2013-11-27 19:24:00,24.3,19.0,30.18,WNW,283,9.0,9.0,80,0.00,,,0.00,Wunderground v.1.15,2013-11-28 00:24:00,
2013-11-27 19:32:00,24.2,18.9,30.19,WNW,285,8.0,15.0,80,0.00,,,0.00,Wunderground v.1.15,2013-11-28 00:32:00,
2013-11-27 19:38:00,24.2,18.9,30.19,West,263,9.0,15.0,80,0.00,,,0.00,Wunderground v.1.15,2013-11-28 00:38:00,
2013-11-27 19:44:00,24.1,18.8,30.19,West,275,9.0,9.0,80,0.00,,,0.00,Wunderground v.1.15,2013-11-28 00:44:00,
2013-11-27 19:50:00,24.1,18.5,30.19,West,273,9.0,15.0,79,0.00,,,0.00,Wunderground v.1.15,2013-11-28 00:50:00,
2013-11-27 20:04:00,24.1,18.5,30.19,West,276,10.0,15.0,79,0.00,,,0.00,Wunderground v.1.15,2013-11-28 01:04:00,
2013-11-27 20:10:00,24.0,18.7,30.20,West,271,9.0,15.0,80,0.00,,,0.00,Wunderground v.1.15,2013-11-28 01:10:00,
2013-11-27 20:15:00,24.1,18.5,30.20,West,273,10.0,10.0,79,0.00,,,0.00,Wunderground v.1.15,2013-11-28 01:15:00,
2013-11-27 20:21:00,24.0,18.4,30.19,West,271,9.0,15.0,79,0.00,,,0.00,Wunderground v.1.15,2013-11-28 01:21:00,
2013-11-27 20:27:00,24.0,18.4,30.20,West,267,9.0,15.0,79,0.00,,,0.00,Wunderground v.1.15,2013-11-28 01:27:00,
2013-11-27 20:33:00,24.1,18.5,30.20,West,280,9.0,9.0,79,0.00,,,0.00,Wunderground v.1.15,2013-11-28 01:33:00,
2013-11-27 20:39:00,24.1,18.5,30.19,WNW,283,9.0,15.0,79,0.00,,,0.00,Wunderground v.1.15,2013-11-28 01:39:00,
2013-11-27 20:44:00,24.0,18.4,30.20,West,273,8.0,15.0,79,0.00,,,0.00,Wunderground v.1.15,2013-11-28 01:44:00,
2013-11-27 20:51:00,24.0,18.4,30.20,West,263,8.0,15.0,79,0.00,,,0.00,Wunderground v.1.15,2013-11-28 01:51:00,
2013-11-27 20:59:00,24.0,18.4,30.20,WSW,256,7.0,9.0,79,0.00,,,0.00,Wunderground v.1.15,2013-11-28 01:59:00,
2013-11-27 21:05:00,24.0,18.1,30.20,West,280,7.0,15.0,78,0.00,,,0.00,Wunderground v.1.15,2013-11-28 02:05:00,
2013-11-27 21:10:00,23.9,18.3,30.20,West,266,7.0,15.0,79,0.00,,,0.00,Wunderground v.1.15,2013-11-28 02:10:00,
2013-11-27 21:18:00,23.8,18.2,30.20,West,259,7.0,8.0,79,0.00,,,0.00,Wunderground v.1.15,2013-11-28 02:18:00,
2013-11-27 21:25:00,23.7,18.1,30.20,West,278,7.0,15.0,79,0.00,,,0.00,Wunderground v.1.15,2013-11-28 02:25:00,
2013-11-27 21:35:00,23.2,17.7,30.21,West,260,7.0,7.0,79,0.00,,,0.00,Wunderground v.1.15,2013-11-28 02:35:00,
2013-11-27 21:40:00,22.9,17.4,30.21,West,259,7.0,15.0,79,0.00,,,0.00,Wunderground v.1.15,2013-11-28 02:40:00,
2013-11-27 21:47:00,22.6,17.1,30.21,WSW,257,7.0,7.0,79,0.00,,,0.00,Wunderground v.1.15,2013-11-28 02:47:00,
2013-11-27 21:55:00,22.5,16.7,30.21,West,277,6.0,15.0,78,0.00,,,0.00,Wunderground v.1.15,2013-11-28 02:55:00,
2013-11-27 22:02:00,22.5,16.7,30.21,WSW,247,6.0,15.0,78,0.00,,,0.00,Wunderground v.1.15,2013-11-28 03:02:00,
2013-11-27 22:08:00,22.0,15.9,30.22,WSW,256,5.0,15.0,77,0.00,,,0.00,Wunderground v.1.15,2013-11-28 03:08:00,
2013-11-27 22:14:00,21.4,15.3,30.22,WSW,253,5.0,5.0,77,0.00,,,0.00,Wunderground v.1.15,2013-11-28 03:14:00,
2013-11-27 22:20:00,21.0,15.2,30.23,SW,228,4.0,15.0,78,0.00,,,0.00,Wunderground v.1.15,2013-11-28 03:20:00,
2013-11-27 22:25:00,21.3,15.2,30.23,WSW,246,5.0,15.0,77,0.00,,,0.00,Wunderground v.1.15,2013-11-28 03:25:00,
2013-11-27 22:32:00,21.2,15.1,30.23,WSW,256,7.0,15.0,77,0.00,,,0.00,Wunderground v.1.15,2013-11-28 03:32:00,
2013-11-27 22:38:00,21.3,15.2,30.23,WSW,249,6.0,6.0,77,0.00,,,0.00,Wunderground v.1.15,2013-11-28 03:38:00,
2013-11-27 22:52:00,21.3,15.2,30.23,SW,236,6.0,15.0,77,0.00,,,0.00,Wunderground v.1.15,2013-11-28 03:52:00,
2013-11-27 23:02:00,21.3,14.9,30.23,WSW,257,6.0,6.0,76,0.00,,,0.00,Wunderground v.1.15,2013-11-28 04:02:00,
2013-11-27 23:08:00,21.3,15.2,30.24,WSW,250,6.0,15.0,77,0.00,,,0.00,Wunderground v.1.15,2013-11-28 04:08:00,
2013-11-27 23:19:00,21.2,15.4,30.24,WSW,250,5.0,15.0,78,0.00,,,0.00,Wunderground v.1.15,2013-11-28 04:19:00,
2013-11-27 23:24:00,21.1,15.0,30.24,WSW,246,5.0,15.0,77,0.00,,,0.00,Wunderground v.1.15,2013-11-28 04:24:00,
2013-11-27 23:30:00,21.1,15.0,30.24,WSW,249,5.0,15.0,77,0.00,,,0.00,Wunderground v.1.15,2013-11-28 04:30:00,
2013-11-27 23:37:00,20.9,15.1,30.24,WSW,245,5.0,15.0,78,0.00,,,0.00,Wunderground v.1.15,2013-11-28 04:37:00,
2013-11-27 23:44:00,20.9,15.1,30.25,West,259,5.0,15.0,78,0.00,,,0.00,Wunderground v.1.15,2013-11-28 04:44:00,
2013-11-27 23:50:00,21.0,15.2,30.25,WSW,242,5.0,15.0,78,0.00,,,0.00,Wunderground v.1.15,2013-11-28 04:50:00,
2013-11-27 23:58:00,21.1,15.3,30.25,WSW,243,5.0,15.0,78,0.00,,,0.00,Wunderground v.1.15,2013-11-28 04:58:00,